Terminal Aerodrome Forecast
Issued by NWS

Home | Current Version | Previous Version | Text Only | Print | Product List | Glossary On
Versions: 1 2 3 4 5 6 7 8 9 10 11 12
166
FTUS45 KVEF 230520
TAFBIH
TAF
KBIH 230520Z 2306/2406 13010KT P6SM FEW250
     FM230800 33007KT P6SM FEW250
     FM231500 VRB04KT P6SM FEW250
     FM231900 17012G20KT P6SM FEW130=

USA.gov is the U.S. government's official web portal to all federal, state and local government web resources and services.